Point Reyes Station, CA

1:48 AM PST on December 07, 2016 (GMT -0800)
Point Reyes Mesa bluff | | Change Station

Elev 70 ft 38.08 °N, 122.82 °W | Updated 44 seconds ago

Clear
Clear
35.1 °F
Feels Like 35 °F
N
0.0
Wind Variable Wind from ESE
Gusts 1.0 mph

Today
High -- | Low -- °F
--% Chance of Precip.
Yesterday
High -- | Low -- °F
Precip. -- in
Pressure 30.18 in
Visibility 10.0 miles
Clouds Clear
Windchill 35 °F
Dew Point 34 °F
Humidity 96%
Rainfall 0.00 in
Snow Depth Not available.
7:14 AM 4:51 PM
Waxing Crescent, 51% visible
METAR KO69 070935Z AUTO 00000KT 10SM CLR 01/00 A3018 RMK AO1
Pressure 30.18 in
Visibility 10.0 miles
Clouds Clear
Windchill 35 °F
Dew Point 34 °F
Humidity 96%
Rainfall 0.00 in
Snow Depth Not available.
7:14 AM 4:51 PM
Waxing Crescent, 51% visible
METAR KO69 070935Z AUTO 00000KT 10SM CLR 01/00 A3018 RMK AO1

10-Day Weather Forecast

Almanac

Astronomy

Dec. 07, 2016 Rise Set
Actual Time
Civil Twilight
Nautical Twilight
Astronomical Twilight
Moon
Length of Visible Light
Length of Day
Tomorrow will be .
, % of the Moon is Illuminated

Today's Extremes

State Highs State Lows

Community

WunderPhotos

Upload Photos

1,956,111 photos uploaded!

WunderBlog® & News

Nearby

Air Quality

  Air Quality AQ Index Pollutant
Not available.

Snow Depth

Station Depth Elevation

Earthquake Activity

City Distance Mag. Time & Date
Minimum magnitude displayed is 2.5.

Coastal Water Temperatures

Place Temperature

Stations

Nearby Weather Stations

Station Location Temp. Windchill Dew Point Humidity Wind Precip. Elev Updated Type
                   

Watches & Warnings

There are currently no watches in effect.